Time;durP1;ratioP1;P1;durP2;ratioP2;P2;SDS_P1;SDS_P2;PMS_P1;PMS_P2;Temp;Humidity;BMP_temperature;BMP_pressure;BME280_temperature;BME280_humidity;BME280_pressure;Samples;Min_cycle;Max_cycle;Signal;HPM_P1;HPM_P2
2022/06/12 00:00:28;;;;;;;8.60;1.40;;;;;;;14.26;56.64;100813.31;4987898;28;20596;-46
2022/06/12 00:02:57;;;;;;;6.75;1.05;;;;;;;14.21;56.45;100812.44;4984996;28;20043;-44
2022/06/12 00:05:28;;;;;;;5.22;1.73;;;;;;;14.18;57.74;100804.66;4985364;28;20054;-43
2022/06/12 00:07:54;;;;;;;4.20;1.42;;;;;;;14.12;56.79;100801.19;4984270;28;20054;-40
2022/06/12 00:10:21;;;;;;;6.95;1.40;;;;;;;14.08;57.35;100807.31;4984683;28;20046;-41
2022/06/12 00:12:48;;;;;;;8.98;1.50;;;;;;;14.04;56.95;100804.72;4986903;28;20058;-41
2022/06/12 00:15:20;;;;;;;5.07;1.17;;;;;;;14.01;57.89;100808.19;4985135;28;20058;-41
2022/06/12 00:17:47;;;;;;;7.20;1.48;;;;;;;13.96;58.04;100809.97;4987049;28;20051;-44
2022/06/12 00:20:17;;;;;;;5.00;1.30;;;;;;;13.96;57.52;100802.16;4988084;28;20461;-43
2022/06/12 00:22:46;;;;;;;4.30;1.48;;;;;;;13.93;58.56;100800.44;4990651;28;20078;-46
2022/06/12 00:25:18;;;;;;;5.20;1.02;;;;;;;13.91;58.71;100798.72;4989865;28;20046;-43
2022/06/12 00:27:47;;;;;;;3.58;1.05;;;;;;;13.85;57.92;100792.66;4988906;28;20109;-44
2022/06/12 00:30:19;;;;;;;4.68;1.33;;;;;;;13.81;58.75;100790.94;4986149;28;20046;-41
2022/06/12 00:32:52;;;;;;;4.13;0.82;;;;;;;13.77;58.90;100789.22;4982642;28;20149;-44
2022/06/12 00:35:25;;;;;;;3.50;1.38;;;;;;;13.74;59.10;100781.41;4984980;28;20203;-42
2022/06/12 00:37:53;;;;;;;4.32;1.65;;;;;;;13.71;58.44;100792.72;4985856;28;20050;-45
2022/06/12 00:40:21;;;;;;;6.40;1.30;;;;;;;13.70;58.90;100790.09;4985465;28;20097;-43
2022/06/12 00:42:51;;;;;;;7.80;1.45;;;;;;;13.68;59.10;100792.72;4983580;28;20062;-42
2022/06/12 00:51:13;;;;;;;6.80;1.20;;;;;;;13.57;59.46;100792.75;5028777;28;20421;-44
2022/06/12 00:53:47;;;;;;;6.07;1.10;;;;;;;13.54;59.62;100787.56;5021661;28;20046;-43
2022/06/12 00:56:18;;;;;;;4.97;1.20;;;;;;;13.53;59.54;100791.03;5019996;28;20046;-40
2022/06/12 00:58:52;;;;;;;5.07;1.10;;;;;;;13.51;59.55;100791.91;5023521;28;20053;-46
2022/06/12 01:01:25;;;;;;;4.85;1.10;;;;;;;13.49;59.33;100794.53;5023096;28;20136;-42
2022/06/12 01:06:44;;;;;;;7.45;0.93;;;;;;;13.41;58.89;100796.25;5022574;28;20045;-46
2022/06/12 01:09:17;;;;;;;5.13;1.33;;;;;;;13.40;59.49;100786.72;5024445;28;20061;-42
2022/06/12 01:11:47;;;;;;;8.95;1.48;;;;;;;13.37;59.89;100787.56;5016927;28;20050;-41
2022/06/12 01:14:17;;;;;;;;;;;;;;;13.14;60.88;100795.44;5039056;28;20052;-44
2022/06/12 01:17:03;;;;;;;6.97;0.82;;;;;;;13.25;59.68;100785.88;5019811;28;19924;-42
2022/06/12 01:33:50;;;;;;;8.48;2.42;;;;;;;13.19;61.42;100793.69;5061122;28;20392;-44
2022/06/12 01:52:09;;;;;;;7.60;1.25;;;;;;;13.04;61.59;100792.81;5075274;27;20407;-43
2022/06/12 01:59:57;;;;;;;4.20;2.38;;;;;;;13.03;60.68;100804.09;5025471;28;20402;-44
2022/06/12 02:10:34;;;;;;;6.85;2.88;;;;;;;12.91;62.09;100793.72;5054377;27;20398;-42
2022/06/12 02:13:11;;;;;;;8.38;2.90;;;;;;;12.91;61.89;100791.13;5020526;28;20100;-42
2022/06/12 02:23:47;;;;;;;6.45;1.92;;;;;;;13.03;62.40;100778.09;5027523;27;20391;-42
2022/06/12 02:26:17;;;;;;;10.10;1.95;;;;;;;12.96;62.30;100781.56;4990212;28;20059;-42
2022/06/12 02:28:51;;;;;;;11.18;2.03;;;;;;;12.91;62.37;100780.72;4990049;28;20054;-46
2022/06/12 02:31:23;;;;;;;10.77;1.65;;;;;;;12.89;62.21;100783.31;4986994;28;20042;-44
2022/06/12 02:33:56;;;;;;;8.00;2.45;;;;;;;12.87;62.28;100777.25;4986486;28;20138;-41
2022/06/12 02:36:27;;;;;;;9.30;1.77;;;;;;;12.83;63.21;100778.97;4994304;28;20049;-40
2022/06/12 02:39:18;;;;;;;7.43;2.15;;;;;;;12.75;62.82;100775.53;4989406;28;20533;-44
2022/06/12 02:41:48;;;;;;;6.40;1.38;;;;;;;12.80;62.32;100775.53;4991312;28;20042;-40
2022/06/12 02:44:20;;;;;;;6.93;1.73;;;;;;;12.77;63.12;100773.78;4999958;28;20100;-42
2022/06/12 02:46:54;;;;;;;11.10;2.33;;;;;;;12.75;63.49;100785.03;4993347;28;20086;-43
2022/06/12 02:49:20;;;;;;;7.13;2.03;;;;;;;12.73;63.01;100782.44;4990528;28;20100;-44
2022/06/12 02:52:12;;;;;;;9.75;2.15;;;;;;;12.64;63.09;100787.66;4990355;28;20054;-41
2022/06/12 03:02:41;;;;;;;8.40;2.30;;;;;;;12.61;63.47;100785.94;5053660;27;20412;-40
2022/06/12 03:10:33;;;;;;;12.05;2.20;;;;;;;12.72;63.82;100786.78;5029042;28;20404;-41
2022/06/12 03:13:01;;;;;;;8.75;2.03;;;;;;;12.65;64.22;100778.97;5004192;28;20049;-43
2022/06/12 03:25:56;;;;;;;6.75;1.90;;;;;;;12.49;64.53;100784.16;5043284;27;20397;-40
2022/06/12 03:28:39;;;;;;;6.70;2.08;;;;;;;12.45;63.47;100777.22;5018660;28;20042;-41
2022/06/12 03:31:12;;;;;;;;;;;;;;;12.27;64.64;100778.97;5018556;28;20076;-40
2022/06/12 03:39:22;;;;;;;9.05;1.98;;;;;;;12.30;63.52;100771.16;5005628;28;20419;-41
2022/06/12 03:42:07;;;;;;;5.00;1.65;;;;;;;12.31;63.66;100775.50;4986010;28;20065;-45
2022/06/12 03:44:55;;;;;;;9.27;3.17;;;;;;;12.29;64.72;100782.41;4983250;28;20540;-43
2022/06/12 03:47:34;;;;;;;9.88;1.95;;;;;;;12.29;64.10;100781.56;4982078;28;20043;-40
2022/06/12 03:50:12;;;;;;;5.85;1.90;;;;;;;12.29;63.58;100785.00;4980832;28;20051;-40
2022/06/12 03:58:10;;;;;;;5.88;1.73;;;;;;;12.27;64.55;100784.16;5054222;27;20980;-40
2022/06/12 04:00:43;;;;;;;8.20;1.83;;;;;;;12.24;64.50;100791.94;5021323;28;20062;-43
2022/06/12 04:03:16;;;;;;;8.73;2.92;;;;;;;12.24;64.86;100784.13;5022726;28;20054;-46
2022/06/12 04:05:50;;;;;;;9.18;2.13;;;;;;;12.23;64.88;100790.22;5016996;28;20054;-46
2022/06/12 04:08:22;;;;;;;8.45;2.10;;;;;;;12.23;64.25;100798.00;5021188;28;20041;-42
2022/06/12 04:10:50;;;;;;;5.75;2.03;;;;;;;12.24;65.24;100799.72;5019185;28;20050;-44
2022/06/12 04:13:19;;;;;;;11.52;2.50;;;;;;;12.25;65.19;100796.25;5019266;28;20100;-41
2022/06/12 04:15:53;;;;;;;11.57;1.90;;;;;;;12.23;64.81;100792.81;5021382;28;20052;-42
2022/06/12 04:18:20;;;;;;;5.00;1.80;;;;;;;12.23;65.04;100792.81;5021779;28;20057;-45
2022/06/12 04:20:54;;;;;;;8.85;1.90;;;;;;;12.25;64.89;100795.38;5021384;28;20053;-43
2022/06/12 04:26:47;;;;;;;8.00;2.13;;;;;;;12.23;65.40;100798.00;5060670;27;20408;-42
2022/06/12 04:42:20;;;;;;;13.80;2.70;;;;;;;12.52;66.73;100783.28;5069147;27;20846;-41
2022/06/12 04:44:48;;;;;;;10.48;2.08;;;;;;;12.52;66.38;100778.97;5020171;27;20437;-43
2022/06/12 04:47:18;;;;;;;9.00;1.90;;;;;;;12.56;65.53;100780.72;5005857;28;20109;-44
2022/06/12 04:49:45;;;;;;;8.20;2.08;;;;;;;12.60;66.78;100779.84;5010414;28;20111;-43
2022/06/12 04:52:13;;;;;;;12.70;2.90;;;;;;;12.68;66.11;100791.97;5001538;28;20054;-40
2022/06/12 04:54:42;;;;;;;7.35;2.00;;;;;;;12.74;66.39;100784.19;5002609;28;20108;-41
2022/06/12 04:57:10;;;;;;;14.23;2.35;;;;;;;12.82;66.30;100785.06;5015271;28;20049;-46
2022/06/12 04:59:38;;;;;;;11.30;2.30;;;;;;;12.92;66.28;100795.44;5005052;28;20068;-43
2022/06/12 05:02:05;;;;;;;6.60;1.77;;;;;;;13.02;66.24;100794.56;5005395;28;20057;-40
2022/06/12 05:04:33;;;;;;;8.13;2.30;;;;;;;13.13;66.06;100796.31;5007891;28;20050;-44
2022/06/12 05:06:59;;;;;;;7.90;1.52;;;;;;;13.27;65.27;100798.88;5007411;28;20101;-41
2022/06/12 05:09:31;;;;;;;11.20;2.13;;;;;;;13.42;65.72;100797.97;5009970;28;20419;-41
2022/06/12 05:11:59;;;;;;;10.05;1.83;;;;;;;13.55;66.00;100799.72;5006127;28;20034;-44
2022/06/12 05:14:25;;;;;;;8.88;2.10;;;;;;;13.71;66.14;100794.47;5016473;28;20076;-43
2022/06/12 05:17:12;;;;;;;8.93;2.10;;;;;;;13.88;65.90;100803.06;5009542;28;20073;-43
2022/06/12 05:19:41;;;;;;;11.93;2.25;;;;;;;14.03;65.25;100800.38;5008387;28;20111;-41
2022/06/12 05:22:09;;;;;;;8.32;2.10;;;;;;;14.13;65.50;100802.06;5001873;28;20049;-43
2022/06/12 05:24:37;;;;;;;8.80;2.00;;;;;;;14.18;64.91;100794.25;5011970;28;20461;-44
2022/06/12 05:27:07;;;;;;;6.30;1.80;;;;;;;14.22;64.06;100790.75;5009134;28;20467;-47
2022/06/12 05:29:37;;;;;;;8.65;2.30;;;;;;;14.26;65.14;100808.09;5007456;28;20050;-43
2022/06/12 05:32:05;;;;;;;6.18;2.30;;;;;;;14.36;64.35;100794.09;5008881;28;20471;-42
2022/06/12 05:34:33;;;;;;;12.15;2.03;;;;;;;14.48;64.27;100787.97;4999356;28;20049;-44
2022/06/12 05:37:01;;;;;;;14.55;2.58;;;;;;;14.58;63.91;100809.59;5005050;28;20282;-41
2022/06/12 05:39:28;;;;;;;12.85;2.15;;;;;;;14.57;63.96;100802.69;5001543;28;20426;-43
2022/06/12 05:41:55;;;;;;;8.98;1.77;;;;;;;14.53;64.29;100795.75;5012275;28;20048;-41
2022/06/12 05:44:21;;;;;;;7.00;2.15;;;;;;;14.52;64.13;100800.09;5010456;28;20046;-45
2022/06/12 05:46:56;;;;;;;9.55;1.70;;;;;;;14.55;64.20;100807.03;5004038;28;20042;-41
2022/06/12 05:49:23;;;;;;;9.25;2.13;;;;;;;14.63;63.74;100800.00;5002932;28;20052;-45
2022/06/12 05:51:49;;;;;;;8.73;2.25;;;;;;;14.71;64.10;100804.28;5007345;28;20124;-45
2022/06/12 05:54:16;;;;;;;7.95;2.30;;;;;;;14.83;64.62;100804.22;4989761;28;20062;-42
2022/06/12 05:56:43;;;;;;;8.60;1.75;;;;;;;15.00;64.72;100811.06;4997732;28;20042;-44
2022/06/12 05:59:10;;;;;;;8.85;2.35;;;;;;;15.14;64.07;100806.56;4991339;28;20054;-42
2022/06/12 06:01:39;;;;;;;9.32;2.10;;;;;;;15.32;63.87;100807.25;4990650;28;20042;-42
2022/06/12 06:04:07;;;;;;;7.68;2.42;;;;;;;15.47;63.66;100811.44;4990232;28;20105;-40
2022/06/12 06:06:42;;;;;;;5.72;1.67;;;;;;;15.65;63.65;100817.34;4993073;28;20137;-44
2022/06/12 06:09:09;;;;;;;7.35;2.13;;;;;;;15.81;63.90;100818.06;4994553;28;20062;-45
2022/06/12 06:11:35;;;;;;;10.57;2.38;;;;;;;16.01;63.05;100823.03;4986606;28;20112;-42
2022/06/12 06:14:02;;;;;;;10.00;2.17;;;;;;;16.23;62.85;100827.09;4997996;28;20046;-41
2022/06/12 06:16:30;;;;;;;6.45;1.92;;;;;;;16.42;62.64;100828.56;4994774;28;20081;-46
2022/06/12 06:18:57;;;;;;;6.45;2.35;;;;;;;16.65;62.64;100829.13;4990920;28;20050;-43
2022/06/12 06:21:23;;;;;;;11.98;3.60;;;;;;;16.82;62.18;100832.34;4996007;28;20050;-44
2022/06/12 06:23:50;;;;;;;6.15;2.08;;;;;;;16.99;61.66;100836.41;4993038;28;20442;-42
2022/06/12 06:26:18;;;;;;;6.68;1.98;;;;;;;17.12;61.86;100829.25;4991664;28;20070;-48
2022/06/12 06:28:45;;;;;;;11.07;2.75;;;;;;;17.29;61.08;100828.09;4993194;28;20046;-45
2022/06/12 06:31:12;;;;;;;12.23;2.20;;;;;;;17.42;60.97;100824.34;4992440;28;20478;-41
2022/06/12 06:33:39;;;;;;;6.22;1.92;;;;;;;17.57;60.65;100819.72;4987306;28;20470;-42
2022/06/12 06:36:09;;;;;;;10.40;2.38;;;;;;;17.77;60.04;100821.94;4995657;28;20137;-44
2022/06/12 06:38:36;;;;;;;4.30;1.60;;;;;;;17.97;60.54;100829.38;4993321;28;20057;-47
2022/06/12 06:41:02;;;;;;;7.53;2.25;;;;;;;18.13;59.83;100821.22;4986914;28;20046;-43
2022/06/12 06:43:30;;;;;;;5.18;2.05;;;;;;;18.35;60.04;100823.34;4982728;28;20108;-42
2022/06/12 06:46:13;;;;;;;9.55;2.13;;;;;;;18.55;59.53;100819.41;4984072;28;20096;-41
2022/06/12 06:48:40;;;;;;;7.45;2.10;;;;;;;18.75;58.14;100822.41;4996395;28;20054;-44
2022/06/12 06:51:07;;;;;;;8.73;2.00;;;;;;;18.94;58.54;100832.44;4987240;28;20407;-42
2022/06/12 06:53:34;;;;;;;7.53;1.95;;;;;;;19.10;58.07;100838.22;4991003;28;20041;-42
2022/06/12 06:56:00;;;;;;;7.53;2.20;;;;;;;19.27;57.84;100834.28;4988211;28;20050;-44
2022/06/12 06:58:30;;;;;;;11.15;2.45;;;;;;;19.41;56.92;100835.69;4988682;28;20293;-43
2022/06/12 07:00:57;;;;;;;8.45;2.50;;;;;;;19.56;56.52;100824.75;4988755;28;20557;-42
2022/06/12 07:03:24;;;;;;;7.75;2.30;;;;;;;19.73;56.26;100826.88;4987489;28;20426;-42
2022/06/12 07:05:52;;;;;;;7.70;2.28;;;;;;;19.89;55.40;100831.69;5002692;28;20406;-44
2022/06/12 07:08:36;;;;;;;8.93;2.35;;;;;;;20.06;55.40;100839.09;4987702;28;20053;-42
2022/06/12 07:11:03;;;;;;;9.27;1.65;;;;;;;20.24;54.81;100842.09;4978875;28;20101;-47
2022/06/12 07:13:30;;;;;;;7.15;1.60;;;;;;;20.42;54.67;100845.91;4991731;28;20050;-47
2022/06/12 07:15:57;;;;;;;7.68;1.95;;;;;;;20.61;53.90;100855.88;4988707;28;20046;-42
2022/06/12 07:18:24;;;;;;;6.97;3.33;;;;;;;20.77;53.82;100851.81;4998980;28;21333;-42
2022/06/12 07:21:00;;;;;;;8.18;1.83;;;;;;;20.92;53.02;100857.53;4987659;28;20125;-46
2022/06/12 07:23:29;;;;;;;5.78;1.75;;;;;;;21.06;51.96;100857.94;4994647;28;20072;-43
2022/06/12 07:25:59;;;;;;;7.07;2.13;;;;;;;21.15;51.18;100858.53;4992184;28;20058;-46
2022/06/12 07:28:26;;;;;;;6.53;1.52;;;;;;;21.28;51.80;100867.72;4989302;28;20054;-43
2022/06/12 07:30:53;;;;;;;9.65;1.80;;;;;;;21.45;51.54;100861.00;4979806;28;20046;-46
2022/06/12 07:33:21;;;;;;;5.35;1.40;;;;;;;21.65;50.49;100860.28;4995004;28;20104;-42
2022/06/12 07:35:49;;;;;;;9.73;1.33;;;;;;;21.65;48.83;100864.72;4988843;28;20470;-49
2022/06/12 07:38:20;;;;;;;6.70;1.58;;;;;;;21.68;49.02;100867.19;4991042;28;20061;-43
2022/06/12 07:40:51;;;;;;;4.45;1.67;;;;;;;21.76;48.94;100862.56;4995051;28;20042;-46
2022/06/12 07:43:18;;;;;;;4.93;1.50;;;;;;;21.88;48.83;100860.41;4980719;28;20054;-47
2022/06/12 07:45:45;;;;;;;9.07;1.73;;;;;;;22.00;48.98;100857.28;5007442;28;20046;-43
2022/06/12 07:48:13;;;;;;;4.90;1.60;;;;;;;22.19;48.71;100864.50;4984539;28;20129;-42
2022/06/12 07:50:42;;;;;;;4.28;1.38;;;;;;;22.34;48.14;100863.03;4987021;28;20056;-47
2022/06/12 07:53:10;;;;;;;7.55;1.02;;;;;;;22.43;47.65;100856.53;4993914;28;20050;-46
2022/06/12 07:55:37;;;;;;;4.90;1.23;;;;;;;22.52;47.27;100872.00;4981690;28;20115;-46
2022/06/12 07:58:05;;;;;;;5.95;1.33;;;;;;;22.67;46.35;100867.06;4984540;28;20593;-45
2022/06/12 08:00:33;;;;;;;5.57;1.80;;;;;;;22.69;45.85;100873.13;4982399;28;20092;-43
2022/06/12 08:03:00;;;;;;;7.32;1.95;;;;;;;22.63;46.01;100868.09;4993790;28;20046;-45
2022/06/12 08:05:27;;;;;;;4.93;1.80;;;;;;;22.64;45.88;100869.81;4992137;28;20132;-45
2022/06/12 08:07:53;;;;;;;5.97;1.58;;;;;;;22.62;45.13;100864.59;4988769;28;20050;-45
2022/06/12 08:10:20;;;;;;;5.30;1.55;;;;;;;22.66;45.71;100873.28;4982014;28;20430;-45
2022/06/12 08:12:48;;;;;;;8.40;1.85;;;;;;;22.79;45.68;100865.69;4987584;28;20120;-45
2022/06/12 08:15:19;;;;;;;4.13;1.63;;;;;;;22.96;45.19;100859.69;4990613;28;20513;-43
2022/06/12 08:17:46;;;;;;;6.05;1.38;;;;;;;23.14;45.03;100857.22;4985617;28;20085;-47
2022/06/12 08:20:30;;;;;;;4.90;1.48;;;;;;;23.33;43.54;100873.13;4979701;28;20505;-45
2022/06/12 08:23:26;;;;;;;4.03;1.15;;;;;;;23.32;42.07;100866.13;4990865;28;20073;-42
2022/06/12 08:28:34;;;;;;;4.00;1.40;;;;;;;23.08;41.93;100879.47;5058275;27;20398;-49
2022/06/12 08:31:03;;;;;;;7.28;1.33;;;;;;;23.10;42.88;100867.91;5017128;28;20046;-52
2022/06/12 08:33:31;;;;;;;10.90;2.53;;;;;;;23.02;42.95;100867.38;5021320;28;20395;-46
2022/06/12 08:35:58;;;;;;;6.07;1.83;;;;;;;23.06;42.24;100871.59;5023830;28;20143;-51
2022/06/12 08:38:25;;;;;;;6.63;1.85;;;;;;;23.08;41.62;100859.22;5018190;28;20112;-43
2022/06/12 08:41:02;;;;;;;7.20;1.90;;;;;;;23.10;41.51;100867.91;5017000;28;20053;-47
2022/06/12 08:43:35;;;;;;;4.68;1.40;;;;;;;23.27;41.47;100874.25;5017890;28;20053;-45
2022/06/12 08:46:10;;;;;;;6.43;1.75;;;;;;;23.31;41.41;100875.00;5019955;28;20133;-48
2022/06/12 08:54:12;;;;;;;4.47;1.48;;;;;;;22.82;40.47;100884.03;5022909;27;20425;-43
2022/06/12 08:56:52;;;;;;;6.55;2.00;;;;;;;22.42;41.20;100879.44;5017549;28;20430;-47
2022/06/12 09:02:01;;;;;;;4.38;1.27;;;;;;;22.14;41.67;100871.72;5024082;28;20410;-46
2022/06/12 09:04:28;;;;;;;5.72;1.55;;;;;;;22.09;42.08;100875.38;4998665;28;20050;-45
2022/06/12 09:12:41;;;;;;;6.13;1.65;;;;;;;22.18;42.62;100889.16;5035604;28;20393;-44
2022/06/12 09:18:09;;;;;;;4.70;1.63;;;;;;;23.08;44.05;100885.63;5027492;27;20419;-50
2022/06/12 09:20:47;;;;;;;6.60;1.05;;;;;;;23.43;42.17;100886.81;5003154;28;20063;-45
2022/06/12 09:52:53;;;;;;;8.15;1.65;;;;;;;22.06;43.23;100896.59;5051375;27;20402;-46
2022/06/12 09:55:44;;;;;;;5.22;2.03;;;;;;;22.16;43.70;100896.28;5020915;28;20523;-44
2022/06/12 10:03:57;;;;;;;7.70;2.67;;;;;;;22.77;43.49;100886.91;5063227;28;20060;-46
2022/06/12 10:06:31;;;;;;;6.85;2.88;;;;;;;22.84;42.92;100887.50;5063334;28;20051;-48
2022/06/12 10:09:10;;;;;;;5.40;3.05;;;;;;;22.77;42.99;100892.19;5058597;28;20041;-47
2022/06/12 10:11:44;;;;;;;7.97;2.63;;;;;;;22.76;42.57;100884.31;5072948;28;20052;-43
2022/06/12 10:17:06;;;;;;;11.90;4.35;;;;;;;22.80;43.07;100875.34;5047110;27;20758;-47
2022/06/12 10:19:43;;;;;;;7.32;1.88;;;;;;;22.99;43.34;100880.72;4995018;28;20138;-49
2022/06/12 10:22:19;;;;;;;4.40;1.40;;;;;;;23.23;43.45;100877.94;4998362;28;20052;-44
2022/06/12 10:24:52;;;;;;;7.30;1.35;;;;;;;23.53;43.17;100869.66;5011680;28;20050;-42
2022/06/12 10:27:19;;;;;;;5.55;1.50;;;;;;;23.55;41.80;100872.22;5003957;28;20482;-44
2022/06/12 10:32:40;;;;;;;8.43;2.05;;;;;;;23.62;41.50;100879.84;5116369;27;20384;-45
2022/06/12 10:35:25;;;;;;;6.15;1.48;;;;;;;23.58;41.57;100872.94;5102174;28;20109;-48
2022/06/12 10:38:02;;;;;;;6.55;1.60;;;;;;;23.61;41.42;100867.50;5088403;28;20048;-45
2022/06/12 10:40:29;;;;;;;6.88;1.63;;;;;;;23.59;42.10;100868.53;5097398;28;20051;-42
2022/06/12 10:43:02;;;;;;;6.68;2.13;;;;;;;23.49;40.91;100868.94;5100905;27;20105;-42
2022/06/12 10:45:33;;;;;;;6.95;2.13;;;;;;;23.37;41.13;100874.75;5105714;28;20044;-41
2022/06/12 10:48:02;;;;;;;7.57;1.77;;;;;;;23.29;41.52;100872.41;5094627;28;20445;-44
2022/06/12 10:50:36;;;;;;;7.80;1.92;;;;;;;23.25;41.02;100876.13;5100439;28;20040;-44
2022/06/12 10:53:16;;;;;;;7.65;1.63;;;;;;;23.15;40.69;100864.22;5091820;28;20064;-50
2022/06/12 10:56:26;;;;;;;6.60;1.38;;;;;;;23.14;41.97;100865.16;5099983;28;20581;-45
2022/06/12 10:59:32;;;;;;;6.82;1.48;;;;;;;23.26;41.85;100859.31;5083953;28;20074;-44
2022/06/12 11:57:57;;;;;;;9.13;1.52;;;;;;;25.59;35.81;100838.63;5061757;28;20396;-44
2022/06/12 12:11:03;;;;;;;6.35;1.35;;;;;;;25.21;35.82;100828.22;5065480;28;20397;-45
2022/06/12 12:13:41;;;;;;;5.57;1.35;;;;;;;25.07;36.56;100827.16;5032588;28;20075;-45
2022/06/12 12:16:18;;;;;;;4.45;1.75;;;;;;;24.86;36.14;100832.59;5063030;28;20059;-42
2022/06/12 12:18:50;;;;;;;5.85;1.63;;;;;;;24.84;36.91;100821.22;5045266;28;20060;-45
2022/06/12 12:21:29;;;;;;;7.00;1.27;;;;;;;24.79;36.39;100823.25;5037057;28;20119;-46
2022/06/12 12:23:57;;;;;;;5.82;1.27;;;;;;;24.73;37.00;100815.59;5023437;28;20042;-50
2022/06/12 12:26:31;;;;;;;5.93;1.45;;;;;;;24.83;37.92;100808.91;5021407;28;20109;-51
2022/06/12 12:29:03;;;;;;;3.70;1.50;;;;;;;25.12;37.80;100817.19;5022256;28;20489;-46
2022/06/12 12:31:31;;;;;;;5.20;1.15;;;;;;;25.38;37.90;100814.09;5025165;28;20045;-45
2022/06/12 12:34:01;;;;;;;4.40;1.50;;;;;;;25.60;37.08;100813.81;5021478;28;20403;-46
2022/06/12 12:47:29;;;;;;;5.60;1.17;;;;;;;26.18;36.07;100805.38;5050156;27;20398;-45
2022/06/12 12:50:15;;;;;;;6.38;1.00;;;;;;;26.37;36.46;100810.50;5023035;28;20049;-49
2022/06/12 12:52:48;;;;;;;4.47;1.05;;;;;;;26.39;35.03;100810.41;5022444;28;20042;-46
2022/06/12 13:00:45;;;;;;;3.85;1.00;;;;;;;25.91;33.56;100796.22;5079905;27;20387;-44
2022/06/12 13:03:28;;;;;;;6.45;2.30;;;;;;;25.59;34.25;100801.50;5025555;27;20397;-47
2022/06/12 13:06:10;;;;;;;8.88;2.72;;;;;;;25.45;35.35;100806.66;5016614;28;20064;-46
2022/06/12 17:04:46;;;;;;;7.00;1.05;;;;;;;21.88;35.95;100760.19;5083597;27;20388;-45
2022/06/12 17:07:17;;;;;;;2.22;0.80;;;;;;;21.98;36.16;100755.41;5051231;28;20045;-44
2022/06/12 17:09:44;;;;;;;4.22;0.65;;;;;;;22.07;36.26;100755.91;5047092;28;20054;-43
2022/06/12 17:12:12;;;;;;;3.33;0.60;;;;;;;22.12;35.50;100736.41;5054993;28;20098;-45
2022/06/12 17:14:40;;;;;;;4.28;0.70;;;;;;;22.14;35.79;100745.97;5049673;28;20118;-42
2022/06/12 17:17:09;;;;;;;2.63;0.63;;;;;;;22.06;36.12;100748.06;5057173;28;20052;-45
2022/06/12 17:22:24;;;;;;;3.55;0.82;;;;;;;21.85;35.97;100752.41;5061501;28;20759;-43
2022/06/12 17:24:52;;;;;;;3.70;1.30;;;;;;;21.73;36.30;100751.91;5061345;28;20432;-45
2022/06/12 17:27:19;;;;;;;1.70;0.60;;;;;;;21.65;36.20;100754.00;5064615;28;20045;-49
2022/06/12 17:29:46;;;;;;;3.28;0.85;;;;;;;21.55;36.59;100753.50;5053743;28;20059;-42
2022/06/12 17:32:30;;;;;;;4.43;1.30;;;;;;;21.47;36.71;100756.41;5066366;28;20043;-45
2022/06/12 17:34:57;;;;;;;4.28;1.40;;;;;;;21.45;36.87;100752.97;5066271;28;20045;-46
2022/06/12 17:37:29;;;;;;;3.55;1.02;;;;;;;21.48;37.48;100752.84;5062380;28;20041;-46
2022/06/12 17:40:00;;;;;;;4.57;1.05;;;;;;;21.52;37.06;100759.72;5065741;28;20143;-48
2022/06/12 17:42:28;;;;;;;3.40;1.02;;;;;;;21.57;37.44;100763.06;5066371;28;20052;-44
2022/06/12 17:44:55;;;;;;;6.15;1.55;;;;;;;21.58;37.20;100759.50;5062710;28;20048;-45
2022/06/12 17:47:22;;;;;;;4.68;0.80;;;;;;;21.49;37.12;100754.56;5068050;28;20041;-46
2022/06/12 17:49:49;;;;;;;4.68;0.90;;;;;;;21.41;37.42;100754.84;5069908;28;20053;-46
2022/06/12 17:52:18;;;;;;;11.95;1.10;;;;;;;21.32;37.44;100752.56;5069838;28;20059;-48
2022/06/12 17:54:45;;;;;;;3.33;0.88;;;;;;;21.23;37.88;100753.75;5068261;28;20044;-43
2022/06/12 17:57:12;;;;;;;4.53;1.00;;;;;;;21.17;38.21;100753.97;5065966;28;20485;-45
2022/06/12 17:59:39;;;;;;;4.47;0.88;;;;;;;21.11;38.15;100762.09;5064824;28;21437;-47
2022/06/12 18:02:06;;;;;;;5.93;1.00;;;;;;;21.02;38.32;100756.25;5062689;28;20051;-46
2022/06/12 18:04:33;;;;;;;2.28;0.98;;;;;;;20.90;37.84;100757.53;5064915;28;20056;-44
2022/06/12 18:07:00;;;;;;;4.65;0.70;;;;;;;20.76;37.75;100752.72;5060632;28;20060;-45
2022/06/12 18:09:27;;;;;;;5.35;1.42;;;;;;;20.62;38.03;100757.56;5068474;28;20060;-45
2022/06/12 18:11:54;;;;;;;5.57;1.13;;;;;;;20.50;38.14;100764.97;5066785;28;20428;-45
2022/06/12 18:19:01;;;;;;;2.53;1.15;;;;;;;20.39;38.21;100761.81;5065129;28;20044;-44
2022/06/12 18:19:53;;;;;;;5.43;1.15;;;;;;;20.20;38.68;100762.44;5048279;28;20105;-41
2022/06/12 18:22:20;;;;;;;5.57;1.67;;;;;;;20.11;39.26;100762.72;5049525;28;20708;-44
2022/06/12 18:24:46;;;;;;;4.53;1.58;;;;;;;20.05;39.96;100753.25;5045714;28;20429;-43
2022/06/12 18:27:13;;;;;;;6.20;1.73;;;;;;;20.00;40.07;100760.44;5053547;28;20056;-44
2022/06/12 18:29:41;;;;;;;3.13;1.35;;;;;;;19.99;39.76;100754.28;5048988;28;20134;-42
2022/06/12 18:32:08;;;;;;;4.55;0.95;;;;;;;20.00;40.46;100765.69;5045186;28;20070;-45
2022/06/12 18:34:34;;;;;;;5.43;0.52;;;;;;;19.99;40.15;100754.28;5047472;28;20061;-45
2022/06/12 18:37:01;;;;;;;5.82;1.27;;;;;;;19.99;40.29;100754.28;5054489;28;20041;-44
2022/06/12 18:39:28;;;;;;;2.47;0.85;;;;;;;19.94;40.09;100756.19;5045508;28;20062;-45
2022/06/12 18:41:54;;;;;;;6.45;1.08;;;;;;;19.98;40.64;100762.19;5051385;28;20048;-43
2022/06/12 18:44:21;;;;;;;3.30;1.10;;;;;;;19.95;40.12;100763.16;5047097;28;20044;-44
2022/06/12 18:46:48;;;;;;;2.92;0.70;;;;;;;19.90;40.01;100765.06;5053685;28;20049;-42
2022/06/12 18:49:14;;;;;;;4.32;1.45;;;;;;;19.84;40.66;100770.50;5053082;28;20053;-44
2022/06/12 18:51:41;;;;;;;5.32;1.05;;;;;;;19.75;40.86;100766.38;5056272;28;20045;-43
2022/06/12 18:54:07;;;;;;;6.55;1.55;;;;;;;19.68;40.42;100768.34;5053923;28;20056;-43
2022/06/12 18:56:34;;;;;;;3.53;1.17;;;;;;;19.55;41.36;100767.00;5062932;28;20049;-48
2022/06/12 18:59:01;;;;;;;5.07;1.85;;;;;;;19.44;41.66;100765.53;5052617;28;20049;-49
2022/06/12 19:01:27;;;;;;;5.95;1.25;;;;;;;19.27;41.37;100761.59;5048975;28;20756;-43
2022/06/12 19:03:56;;;;;;;3.33;1.23;;;;;;;19.14;41.67;100763.72;5048827;28;20048;-44
2022/06/12 19:06:24;;;;;;;4.38;2.70;;;;;;;18.99;41.58;100766.72;5044857;28;20044;-45
2022/06/12 19:08:54;;;;;;;5.05;1.50;;;;;;;18.86;41.39;100771.41;5061714;28;20052;-48
2022/06/12 19:11:36;;;;;;;2.65;1.23;;;;;;;18.75;41.85;100777.78;5044401;28;20056;-48
2022/06/12 19:14:06;;;;;;;4.45;1.23;;;;;;;18.66;42.42;100770.16;5045386;28;20052;-45
2022/06/12 19:16:33;;;;;;;4.65;1.40;;;;;;;18.57;42.61;100765.13;5051143;28;20437;-43
2022/06/12 19:19:00;;;;;;;4.05;0.88;;;;;;;18.53;42.66;100784.47;5053430;28;20528;-46
2022/06/12 19:21:27;;;;;;;6.70;1.20;;;;;;;18.50;43.05;100773.16;5050028;28;20680;-45
2022/06/12 19:23:53;;;;;;;4.15;0.98;;;;;;;18.46;43.28;100770.66;5053772;28;20053;-47
2022/06/12 19:26:20;;;;;;;5.28;1.92;;;;;;;18.42;42.77;100777.75;5046332;28;20102;-45
2022/06/12 19:28:47;;;;;;;8.05;1.52;;;;;;;18.39;43.30;100767.31;5049251;28;20421;-45
2022/06/12 19:31:14;;;;;;;5.10;1.48;;;;;;;18.36;43.29;100785.75;5055705;28;20502;-45
2022/06/12 19:33:40;;;;;;;4.32;0.98;;;;;;;18.30;43.22;100785.91;5050579;28;20053;-47
2022/06/12 19:36:07;;;;;;;3.72;0.77;;;;;;;18.26;43.24;100794.72;5054933;28;20421;-43
2022/06/12 19:38:35;;;;;;;5.55;0.77;;;;;;;18.22;43.80;100780.81;5062476;28;20052;-45
2022/06/12 19:41:05;;;;;;;5.88;1.42;;;;;;;18.18;44.04;100785.28;5042304;28;20138;-46
2022/06/12 19:43:31;;;;;;;3.95;1.05;;;;;;;18.14;44.30;100788.00;5039503;28;20056;-45
2022/06/12 19:45:58;;;;;;;4.32;1.13;;;;;;;18.11;44.62;100792.41;5040137;28;20057;-47
2022/06/12 19:48:25;;;;;;;5.25;0.80;;;;;;;18.09;44.21;100791.59;5042256;28;20056;-44
2022/06/12 19:50:51;;;;;;;4.53;1.42;;;;;;;18.07;44.64;100792.50;5043343;28;20045;-48
2022/06/12 19:53:18;;;;;;;3.15;1.05;;;;;;;18.04;44.40;100795.19;5040150;28;20756;-47
2022/06/12 19:55:45;;;;;;;3.35;0.90;;;;;;;17.97;44.71;100797.91;5045380;28;20460;-44